sensor_id;sensor_type;location;lat;lon;timestamp;P1;durP1;ratioP1;P2;durP2;ratioP2
18838;SDS011;9548;56.920;14.804;2022-08-21T00:00:58;3.85;;;1.05;;
18838;SDS011;9548;56.920;14.804;2022-08-21T00:03:27;2.88;;;0.90;;
18838;SDS011;9548;56.920;14.804;2022-08-21T00:05:54;3.53;;;0.77;;
18838;SDS011;9548;56.920;14.804;2022-08-21T00:08:21;4.80;;;1.45;;
18838;SDS011;9548;56.920;14.804;2022-08-21T00:10:48;3.22;;;0.95;;
18838;SDS011;9548;56.920;14.804;2022-08-21T00:13:16;4.10;;;0.90;;
18838;SDS011;9548;56.920;14.804;2022-08-21T00:15:44;2.70;;;0.70;;
18838;SDS011;9548;56.920;14.804;2022-08-21T00:18:14;2.20;;;0.80;;
18838;SDS011;9548;56.920;14.804;2022-08-21T00:20:42;3.47;;;0.90;;
18838;SDS011;9548;56.920;14.804;2022-08-21T00:23:11;5.85;;;0.90;;
18838;SDS011;9548;56.920;14.804;2022-08-21T00:25:39;4.07;;;1.00;;
18838;SDS011;9548;56.920;14.804;2022-08-21T00:28:08;6.20;;;1.10;;
18838;SDS011;9548;56.920;14.804;2022-08-21T00:30:35;4.05;;;0.90;;
18838;SDS011;9548;56.920;14.804;2022-08-21T00:33:02;5.10;;;0.73;;
18838;SDS011;9548;56.920;14.804;2022-08-21T00:35:32;4.18;;;0.90;;
18838;SDS011;9548;56.920;14.804;2022-08-21T00:38:01;4.80;;;1.02;;
18838;SDS011;9548;56.920;14.804;2022-08-21T00:40:31;3.70;;;0.93;;
18838;SDS011;9548;56.920;14.804;2022-08-21T00:43:00;3.03;;;0.80;;
18838;SDS011;9548;56.920;14.804;2022-08-21T00:45:29;5.43;;;1.23;;
18838;SDS011;9548;56.920;14.804;2022-08-21T00:47:57;1.83;;;0.77;;
18838;SDS011;9548;56.920;14.804;2022-08-21T00:50:24;4.15;;;1.02;;
18838;SDS011;9548;56.920;14.804;2022-08-21T00:52:54;5.45;;;1.20;;
18838;SDS011;9548;56.920;14.804;2022-08-21T00:55:23;4.05;;;0.80;;
18838;SDS011;9548;56.920;14.804;2022-08-21T00:57:51;4.50;;;0.90;;
18838;SDS011;9548;56.920;14.804;2022-08-21T01:00:21;3.95;;;0.80;;
18838;SDS011;9548;56.920;14.804;2022-08-21T01:02:53;4.68;;;1.00;;
18838;SDS011;9548;56.920;14.804;2022-08-21T01:05:20;2.67;;;0.90;;
18838;SDS011;9548;56.920;14.804;2022-08-21T01:07:47;4.07;;;1.15;;
18838;SDS011;9548;56.920;14.804;2022-08-21T01:10:16;2.92;;;0.95;;
18838;SDS011;9548;56.920;14.804;2022-08-21T01:12:44;2.75;;;0.80;;
18838;SDS011;9548;56.920;14.804;2022-08-21T01:15:11;2.72;;;1.25;;
18838;SDS011;9548;56.920;14.804;2022-08-21T01:17:40;3.40;;;1.63;;
18838;SDS011;9548;56.920;14.804;2022-08-21T01:20:09;5.97;;;1.20;;
18838;SDS011;9548;56.920;14.804;2022-08-21T01:22:39;6.22;;;1.10;;
18838;SDS011;9548;56.920;14.804;2022-08-21T01:25:07;5.93;;;1.15;;
18838;SDS011;9548;56.920;14.804;2022-08-21T01:27:36;5.40;;;1.20;;
18838;SDS011;9548;56.920;14.804;2022-08-21T01:30:07;4.85;;;1.05;;
18838;SDS011;9548;56.920;14.804;2022-08-21T01:32:37;1.17;;;1.02;;
18838;SDS011;9548;56.920;14.804;2022-08-21T01:35:05;8.27;;;1.40;;
18838;SDS011;9548;56.920;14.804;2022-08-21T01:37:32;5.22;;;1.02;;
18838;SDS011;9548;56.920;14.804;2022-08-21T01:40:02;2.55;;;0.90;;
18838;SDS011;9548;56.920;14.804;2022-08-21T01:42:30;6.30;;;1.17;;
18838;SDS011;9548;56.920;14.804;2022-08-21T01:44:58;5.38;;;1.30;;
18838;SDS011;9548;56.920;14.804;2022-08-21T01:47:25;5.22;;;1.00;;
18838;SDS011;9548;56.920;14.804;2022-08-21T01:49:52;3.80;;;1.10;;
18838;SDS011;9548;56.920;14.804;2022-08-21T01:52:20;5.72;;;1.52;;
18838;SDS011;9548;56.920;14.804;2022-08-21T01:54:47;3.10;;;1.23;;
18838;SDS011;9548;56.920;14.804;2022-08-21T01:57:15;3.20;;;1.42;;
18838;SDS011;9548;56.920;14.804;2022-08-21T01:59:42;3.08;;;1.33;;
18838;SDS011;9548;56.920;14.804;2022-08-21T02:02:09;8.70;;;1.15;;
18838;SDS011;9548;56.920;14.804;2022-08-21T02:04:36;5.35;;;2.35;;
18838;SDS011;9548;56.920;14.804;2022-08-21T02:07:03;2.17;;;1.00;;
18838;SDS011;9548;56.920;14.804;2022-08-21T02:09:31;2.13;;;1.30;;
18838;SDS011;9548;56.920;14.804;2022-08-21T02:11:58;4.68;;;1.02;;
18838;SDS011;9548;56.920;14.804;2022-08-21T02:14:27;4.15;;;1.02;;
18838;SDS011;9548;56.920;14.804;2022-08-21T02:16:54;5.15;;;1.25;;
18838;SDS011;9548;56.920;14.804;2022-08-21T02:19:21;3.38;;;1.50;;
18838;SDS011;9548;56.920;14.804;2022-08-21T02:21:48;4.45;;;1.20;;
18838;SDS011;9548;56.920;14.804;2022-08-21T02:24:15;6.50;;;1.40;;
18838;SDS011;9548;56.920;14.804;2022-08-21T02:26:42;2.30;;;1.00;;
18838;SDS011;9548;56.920;14.804;2022-08-21T02:29:09;2.10;;;1.00;;
18838;SDS011;9548;56.920;14.804;2022-08-21T02:31:37;5.05;;;1.30;;
18838;SDS011;9548;56.920;14.804;2022-08-21T02:34:04;5.10;;;1.38;;
18838;SDS011;9548;56.920;14.804;2022-08-21T02:36:31;8.02;;;1.20;;
18838;SDS011;9548;56.920;14.804;2022-08-21T02:38:58;3.60;;;1.20;;
18838;SDS011;9548;56.920;14.804;2022-08-21T02:41:25;6.43;;;1.50;;
18838;SDS011;9548;56.920;14.804;2022-08-21T02:43:52;5.68;;;1.25;;
18838;SDS011;9548;56.920;14.804;2022-08-21T02:46:20;5.40;;;1.70;;
18838;SDS011;9548;56.920;14.804;2022-08-21T02:48:48;4.60;;;1.50;;
18838;SDS011;9548;56.920;14.804;2022-08-21T02:51:16;4.90;;;1.33;;
18838;SDS011;9548;56.920;14.804;2022-08-21T02:53:45;4.95;;;1.33;;
18838;SDS011;9548;56.920;14.804;2022-08-21T02:56:13;7.30;;;1.38;;
18838;SDS011;9548;56.920;14.804;2022-08-21T02:58:45;8.00;;;1.55;;
18838;SDS011;9548;56.920;14.804;2022-08-21T03:01:14;2.80;;;1.30;;
18838;SDS011;9548;56.920;14.804;2022-08-21T03:03:42;4.70;;;1.40;;
18838;SDS011;9548;56.920;14.804;2022-08-21T03:06:12;7.00;;;1.40;;
18838;SDS011;9548;56.920;14.804;2022-08-21T03:08:41;3.63;;;1.80;;
18838;SDS011;9548;56.920;14.804;2022-08-21T03:11:10;3.88;;;1.30;;
18838;SDS011;9548;56.920;14.804;2022-08-21T03:13:38;5.22;;;1.40;;
18838;SDS011;9548;56.920;14.804;2022-08-21T03:16:05;4.40;;;1.42;;
18838;SDS011;9548;56.920;14.804;2022-08-21T03:18:33;9.65;;;1.42;;
18838;SDS011;9548;56.920;14.804;2022-08-21T03:21:01;7.28;;;1.50;;
18838;SDS011;9548;56.920;14.804;2022-08-21T03:23:29;3.58;;;1.40;;
18838;SDS011;9548;56.920;14.804;2022-08-21T03:25:57;3.95;;;1.30;;
18838;SDS011;9548;56.920;14.804;2022-08-21T03:28:24;2.90;;;1.50;;
18838;SDS011;9548;56.920;14.804;2022-08-21T03:30:51;3.08;;;1.40;;
18838;SDS011;9548;56.920;14.804;2022-08-21T03:33:19;6.47;;;1.52;;
18838;SDS011;9548;56.920;14.804;2022-08-21T03:35:47;5.38;;;1.50;;
18838;SDS011;9548;56.920;14.804;2022-08-21T03:38:20;3.40;;;1.38;;
18838;SDS011;9548;56.920;14.804;2022-08-21T03:40:48;9.75;;;2.05;;
18838;SDS011;9548;56.920;14.804;2022-08-21T03:43:15;3.58;;;1.40;;
18838;SDS011;9548;56.920;14.804;2022-08-21T03:45:42;4.03;;;1.67;;
18838;SDS011;9548;56.920;14.804;2022-08-21T03:48:09;3.92;;;1.30;;
18838;SDS011;9548;56.920;14.804;2022-08-21T03:50:37;6.57;;;1.60;;
18838;SDS011;9548;56.920;14.804;2022-08-21T03:53:06;4.07;;;1.65;;
18838;SDS011;9548;56.920;14.804;2022-08-21T03:55:34;4.53;;;1.42;;
18838;SDS011;9548;56.920;14.804;2022-08-21T03:58:02;2.20;;;1.40;;
18838;SDS011;9548;56.920;14.804;2022-08-21T04:00:29;3.58;;;1.80;;
18838;SDS011;9548;56.920;14.804;2022-08-21T04:02:56;7.20;;;1.80;;
18838;SDS011;9548;56.920;14.804;2022-08-21T04:05:23;5.57;;;1.67;;
18838;SDS011;9548;56.920;14.804;2022-08-21T04:07:54;7.55;;;1.70;;
18838;SDS011;9548;56.920;14.804;2022-08-21T04:10:22;5.13;;;1.67;;
18838;SDS011;9548;56.920;14.804;2022-08-21T04:12:50;4.15;;;1.60;;
18838;SDS011;9548;56.920;14.804;2022-08-21T04:15:19;7.45;;;1.80;;
18838;SDS011;9548;56.920;14.804;2022-08-21T04:17:47;4.35;;;1.60;;
18838;SDS011;9548;56.920;14.804;2022-08-21T04:20:14;5.40;;;1.65;;
18838;SDS011;9548;56.920;14.804;2022-08-21T04:22:42;4.55;;;1.67;;
18838;SDS011;9548;56.920;14.804;2022-08-21T04:25:09;4.88;;;1.75;;
18838;SDS011;9548;56.920;14.804;2022-08-21T04:27:36;6.03;;;1.58;;
18838;SDS011;9548;56.920;14.804;2022-08-21T04:30:05;7.43;;;2.03;;
18838;SDS011;9548;56.920;14.804;2022-08-21T04:32:35;5.55;;;1.75;;
18838;SDS011;9548;56.920;14.804;2022-08-21T04:35:03;7.25;;;1.80;;
18838;SDS011;9548;56.920;14.804;2022-08-21T04:37:33;4.78;;;1.75;;
18838;SDS011;9548;56.920;14.804;2022-08-21T04:40:00;6.60;;;1.80;;
18838;SDS011;9548;56.920;14.804;2022-08-21T04:42:28;7.03;;;1.80;;
18838;SDS011;9548;56.920;14.804;2022-08-21T04:44:55;4.63;;;1.58;;
18838;SDS011;9548;56.920;14.804;2022-08-21T04:47:22;7.40;;;1.90;;
18838;SDS011;9548;56.920;14.804;2022-08-21T04:49:52;8.70;;;2.00;;
18838;SDS011;9548;56.920;14.804;2022-08-21T04:52:19;6.95;;;1.73;;
18838;SDS011;9548;56.920;14.804;2022-08-21T04:54:49;7.97;;;2.50;;
18838;SDS011;9548;56.920;14.804;2022-08-21T04:57:17;5.13;;;1.63;;
18838;SDS011;9548;56.920;14.804;2022-08-21T04:59:46;7.75;;;1.75;;
18838;SDS011;9548;56.920;14.804;2022-08-21T05:02:17;3.20;;;1.70;;
18838;SDS011;9548;56.920;14.804;2022-08-21T05:04:47;4.13;;;1.90;;
18838;SDS011;9548;56.920;14.804;2022-08-21T05:07:19;6.07;;;1.98;;
18838;SDS011;9548;56.920;14.804;2022-08-21T05:09:50;4.03;;;1.73;;
18838;SDS011;9548;56.920;14.804;2022-08-21T05:12:17;6.10;;;1.83;;
18838;SDS011;9548;56.920;14.804;2022-08-21T05:14:45;9.07;;;1.80;;
18838;SDS011;9548;56.920;14.804;2022-08-21T05:17:12;5.05;;;1.60;;
18838;SDS011;9548;56.920;14.804;2022-08-21T05:19:39;3.55;;;1.70;;
18838;SDS011;9548;56.920;14.804;2022-08-21T05:22:07;4.90;;;1.90;;
18838;SDS011;9548;56.920;14.804;2022-08-21T05:24:36;4.63;;;1.73;;
18838;SDS011;9548;56.920;14.804;2022-08-21T05:27:03;5.18;;;1.73;;
18838;SDS011;9548;56.920;14.804;2022-08-21T05:29:33;7.85;;;1.70;;
18838;SDS011;9548;56.920;14.804;2022-08-21T05:32:00;2.45;;;1.77;;
18838;SDS011;9548;56.920;14.804;2022-08-21T05:34:27;5.07;;;1.90;;
18838;SDS011;9548;56.920;14.804;2022-08-21T05:36:54;4.95;;;1.67;;
18838;SDS011;9548;56.920;14.804;2022-08-21T05:39:21;8.93;;;2.00;;
18838;SDS011;9548;56.920;14.804;2022-08-21T05:41:49;9.65;;;1.88;;
18838;SDS011;9548;56.920;14.804;2022-08-21T05:44:16;5.78;;;3.45;;
18838;SDS011;9548;56.920;14.804;2022-08-21T05:46:43;5.80;;;2.30;;
18838;SDS011;9548;56.920;14.804;2022-08-21T05:49:10;2.97;;;1.38;;
18838;SDS011;9548;56.920;14.804;2022-08-21T05:51:39;4.65;;;1.50;;
18838;SDS011;9548;56.920;14.804;2022-08-21T05:54:06;4.88;;;1.50;;
18838;SDS011;9548;56.920;14.804;2022-08-21T05:56:33;4.70;;;2.00;;
18838;SDS011;9548;56.920;14.804;2022-08-21T05:59:02;5.63;;;1.30;;
18838;SDS011;9548;56.920;14.804;2022-08-21T06:01:28;4.88;;;1.35;;
18838;SDS011;9548;56.920;14.804;2022-08-21T06:03:55;5.47;;;1.35;;
18838;SDS011;9548;56.920;14.804;2022-08-21T06:06:22;3.88;;;1.50;;
18838;SDS011;9548;56.920;14.804;2022-08-21T06:08:49;6.18;;;1.55;;
18838;SDS011;9548;56.920;14.804;2022-08-21T06:11:17;5.88;;;1.13;;
18838;SDS011;9548;56.920;14.804;2022-08-21T06:13:44;2.63;;;1.02;;
18838;SDS011;9548;56.920;14.804;2022-08-21T06:16:14;6.18;;;1.08;;
18838;SDS011;9548;56.920;14.804;2022-08-21T06:18:42;4.20;;;1.05;;
18838;SDS011;9548;56.920;14.804;2022-08-21T06:21:10;5.10;;;1.20;;
18838;SDS011;9548;56.920;14.804;2022-08-21T06:23:38;4.07;;;1.13;;
18838;SDS011;9548;56.920;14.804;2022-08-21T06:26:06;5.53;;;1.25;;
18838;SDS011;9548;56.920;14.804;2022-08-21T06:28:34;5.55;;;1.20;;
18838;SDS011;9548;56.920;14.804;2022-08-21T06:31:09;5.97;;;1.58;;
18838;SDS011;9548;56.920;14.804;2022-08-21T06:33:39;6.57;;;1.20;;
18838;SDS011;9548;56.920;14.804;2022-08-21T06:36:07;3.75;;;1.17;;
18838;SDS011;9548;56.920;14.804;2022-08-21T06:38:34;3.90;;;1.05;;
18838;SDS011;9548;56.920;14.804;2022-08-21T06:41:01;4.75;;;0.90;;
18838;SDS011;9548;56.920;14.804;2022-08-21T06:43:28;8.05;;;1.65;;
18838;SDS011;9548;56.920;14.804;2022-08-21T06:45:56;4.57;;;1.25;;
18838;SDS011;9548;56.920;14.804;2022-08-21T06:48:24;7.25;;;1.30;;
18838;SDS011;9548;56.920;14.804;2022-08-21T06:50:51;5.47;;;1.10;;
18838;SDS011;9548;56.920;14.804;2022-08-21T06:53:18;2.60;;;0.90;;
18838;SDS011;9548;56.920;14.804;2022-08-21T06:55:47;6.68;;;1.10;;
18838;SDS011;9548;56.920;14.804;2022-08-21T06:58:15;5.22;;;1.00;;
18838;SDS011;9548;56.920;14.804;2022-08-21T07:00:43;2.60;;;0.98;;
18838;SDS011;9548;56.920;14.804;2022-08-21T07:03:16;2.75;;;0.95;;
18838;SDS011;9548;56.920;14.804;2022-08-21T07:05:46;1.55;;;0.68;;
18838;SDS011;9548;56.920;14.804;2022-08-21T07:08:12;3.97;;;1.30;;
18838;SDS011;9548;56.920;14.804;2022-08-21T07:10:40;4.85;;;0.88;;
18838;SDS011;9548;56.920;14.804;2022-08-21T07:13:07;1.92;;;0.80;;
18838;SDS011;9548;56.920;14.804;2022-08-21T07:15:34;4.50;;;0.80;;
18838;SDS011;9548;56.920;14.804;2022-08-21T07:18:01;5.03;;;1.10;;
18838;SDS011;9548;56.920;14.804;2022-08-21T07:20:28;3.42;;;0.80;;
18838;SDS011;9548;56.920;14.804;2022-08-21T07:22:59;4.70;;;0.90;;
18838;SDS011;9548;56.920;14.804;2022-08-21T07:25:29;9.48;;;1.38;;
18838;SDS011;9548;56.920;14.804;2022-08-21T07:27:57;2.58;;;0.80;;
18838;SDS011;9548;56.920;14.804;2022-08-21T07:30:24;4.50;;;0.88;;
18838;SDS011;9548;56.920;14.804;2022-08-21T07:32:51;1.33;;;0.80;;
18838;SDS011;9548;56.920;14.804;2022-08-21T07:35:19;7.70;;;1.20;;
18838;SDS011;9548;56.920;14.804;2022-08-21T07:37:46;7.07;;;1.15;;
18838;SDS011;9548;56.920;14.804;2022-08-21T07:40:15;5.18;;;1.00;;
18838;SDS011;9548;56.920;14.804;2022-08-21T07:42:43;2.90;;;0.82;;
18838;SDS011;9548;56.920;14.804;2022-08-21T07:45:12;3.17;;;1.10;;
18838;SDS011;9548;56.920;14.804;2022-08-21T07:47:40;3.55;;;1.00;;
18838;SDS011;9548;56.920;14.804;2022-08-21T07:50:07;8.63;;;1.17;;
18838;SDS011;9548;56.920;14.804;2022-08-21T07:52:36;4.30;;;0.80;;
18838;SDS011;9548;56.920;14.804;2022-08-21T07:55:03;3.78;;;0.90;;
18838;SDS011;9548;56.920;14.804;2022-08-21T07:57:32;5.43;;;1.02;;
18838;SDS011;9548;56.920;14.804;2022-08-21T07:59:59;3.53;;;0.85;;
18838;SDS011;9548;56.920;14.804;2022-08-21T08:02:27;6.75;;;0.90;;
18838;SDS011;9548;56.920;14.804;2022-08-21T08:04:57;4.50;;;1.10;;
18838;SDS011;9548;56.920;14.804;2022-08-21T08:07:25;2.17;;;0.70;;
18838;SDS011;9548;56.920;14.804;2022-08-21T08:09:52;4.80;;;0.90;;
18838;SDS011;9548;56.920;14.804;2022-08-21T08:12:19;1.92;;;0.73;;
18838;SDS011;9548;56.920;14.804;2022-08-21T08:14:47;4.53;;;1.25;;
18838;SDS011;9548;56.920;14.804;2022-08-21T08:17:15;4.03;;;0.90;;
18838;SDS011;9548;56.920;14.804;2022-08-21T08:19:44;2.22;;;0.85;;
18838;SDS011;9548;56.920;14.804;2022-08-21T08:22:14;3.80;;;1.10;;
18838;SDS011;9548;56.920;14.804;2022-08-21T08:24:41;2.03;;;0.90;;
18838;SDS011;9548;56.920;14.804;2022-08-21T08:27:08;4.80;;;1.00;;
18838;SDS011;9548;56.920;14.804;2022-08-21T08:29:35;2.25;;;1.05;;
18838;SDS011;9548;56.920;14.804;2022-08-21T08:32:04;3.92;;;0.80;;
18838;SDS011;9548;56.920;14.804;2022-08-21T08:34:32;4.97;;;1.00;;
18838;SDS011;9548;56.920;14.804;2022-08-21T08:36:59;5.60;;;0.98;;
18838;SDS011;9548;56.920;14.804;2022-08-21T08:39:26;6.90;;;1.08;;
18838;SDS011;9548;56.920;14.804;2022-08-21T08:41:54;2.95;;;0.85;;
18838;SDS011;9548;56.920;14.804;2022-08-21T08:44:38;4.15;;;0.93;;
18838;SDS011;9548;56.920;14.804;2022-08-21T08:47:07;2.50;;;0.85;;
18838;SDS011;9548;56.920;14.804;2022-08-21T08:49:37;5.72;;;0.95;;
18838;SDS011;9548;56.920;14.804;2022-08-21T08:52:11;2.97;;;1.20;;
18838;SDS011;9548;56.920;14.804;2022-08-21T08:54:44;1.65;;;0.90;;
18838;SDS011;9548;56.920;14.804;2022-08-21T08:57:16;5.57;;;1.38;;
18838;SDS011;9548;56.920;14.804;2022-08-21T08:59:45;3.03;;;0.93;;
18838;SDS011;9548;56.920;14.804;2022-08-21T09:02:16;2.90;;;0.95;;
18838;SDS011;9548;56.920;14.804;2022-08-21T09:04:44;3.13;;;0.93;;
18838;SDS011;9548;56.920;14.804;2022-08-21T09:07:15;3.22;;;0.82;;
18838;SDS011;9548;56.920;14.804;2022-08-21T09:09:57;2.30;;;0.85;;
18838;SDS011;9548;56.920;14.804;2022-08-21T09:12:33;6.97;;;1.02;;
18838;SDS011;9548;56.920;14.804;2022-08-21T09:15:12;4.05;;;0.95;;
18838;SDS011;9548;56.920;14.804;2022-08-21T09:17:59;2.40;;;1.20;;
18838;SDS011;9548;56.920;14.804;2022-08-21T09:20:47;3.35;;;1.08;;
18838;SDS011;9548;56.920;14.804;2022-08-21T09:23:25;4.07;;;0.93;;
18838;SDS011;9548;56.920;14.804;2022-08-21T09:26:02;3.28;;;1.00;;
18838;SDS011;9548;56.920;14.804;2022-08-21T09:28:34;2.90;;;0.85;;
18838;SDS011;9548;56.920;14.804;2022-08-21T09:31:02;4.13;;;0.98;;
18838;SDS011;9548;56.920;14.804;2022-08-21T09:33:34;4.10;;;1.10;;
18838;SDS011;9548;56.920;14.804;2022-08-21T09:36:01;3.42;;;0.90;;
18838;SDS011;9548;56.920;14.804;2022-08-21T09:38:30;4.75;;;1.00;;
18838;SDS011;9548;56.920;14.804;2022-08-21T09:40:59;5.68;;;1.10;;
18838;SDS011;9548;56.920;14.804;2022-08-21T09:43:29;3.90;;;1.10;;
18838;SDS011;9548;56.920;14.804;2022-08-21T09:46:06;3.47;;;1.08;;
18838;SDS011;9548;56.920;14.804;2022-08-21T09:48:44;4.40;;;1.20;;
18838;SDS011;9548;56.920;14.804;2022-08-21T09:51:14;2.50;;;1.00;;
18838;SDS011;9548;56.920;14.804;2022-08-21T09:53:44;3.85;;;0.82;;
18838;SDS011;9548;56.920;14.804;2022-08-21T09:56:17;2.95;;;1.10;;
18838;SDS011;9548;56.920;14.804;2022-08-21T09:59:12;2.58;;;1.05;;
18838;SDS011;9548;56.920;14.804;2022-08-21T10:01:44;1.92;;;1.20;;
18838;SDS011;9548;56.920;14.804;2022-08-21T10:04:18;3.53;;;1.13;;
18838;SDS011;9548;56.920;14.804;2022-08-21T10:06:47;2.58;;;0.95;;
18838;SDS011;9548;56.920;14.804;2022-08-21T10:09:14;2.08;;;0.98;;
18838;SDS011;9548;56.920;14.804;2022-08-21T10:11:47;3.00;;;1.13;;
18838;SDS011;9548;56.920;14.804;2022-08-21T10:14:28;4.38;;;1.10;;
18838;SDS011;9548;56.920;14.804;2022-08-21T10:17:05;4.93;;;1.35;;
18838;SDS011;9548;56.920;14.804;2022-08-21T10:19:46;2.00;;;0.80;;
18838;SDS011;9548;56.920;14.804;2022-08-21T10:22:21;2.15;;;1.10;;
18838;SDS011;9548;56.920;14.804;2022-08-21T10:24:58;3.65;;;0.80;;
18838;SDS011;9548;56.920;14.804;2022-08-21T10:27:33;5.05;;;0.90;;
18838;SDS011;9548;56.920;14.804;2022-08-21T10:30:07;1.48;;;0.85;;
18838;SDS011;9548;56.920;14.804;2022-08-21T10:32:40;2.30;;;0.85;;
18838;SDS011;9548;56.920;14.804;2022-08-21T10:35:19;4.50;;;1.15;;
18838;SDS011;9548;56.920;14.804;2022-08-21T10:40:52;7.63;;;0.98;;
18838;SDS011;9548;56.920;14.804;2022-08-21T10:43:27;2.85;;;0.90;;
18838;SDS011;9548;56.920;14.804;2022-08-21T10:46:05;4.20;;;1.05;;
18838;SDS011;9548;56.920;14.804;2022-08-21T10:48:42;5.10;;;1.27;;
18838;SDS011;9548;56.920;14.804;2022-08-21T10:51:17;2.42;;;1.10;;
18838;SDS011;9548;56.920;14.804;2022-08-21T10:53:51;2.72;;;1.00;;
18838;SDS011;9548;56.920;14.804;2022-08-21T10:56:25;3.88;;;0.80;;
18838;SDS011;9548;56.920;14.804;2022-08-21T10:59:00;2.63;;;0.90;;
18838;SDS011;9548;56.920;14.804;2022-08-21T11:01:34;2.10;;;1.02;;
18838;SDS011;9548;56.920;14.804;2022-08-21T11:04:10;4.88;;;1.05;;
18838;SDS011;9548;56.920;14.804;2022-08-21T11:06:44;2.83;;;1.13;;
18838;SDS011;9548;56.920;14.804;2022-08-21T11:09:15;4.35;;;0.93;;
18838;SDS011;9548;56.920;14.804;2022-08-21T11:11:46;3.13;;;0.90;;
18838;SDS011;9548;56.920;14.804;2022-08-21T11:14:20;1.52;;;0.80;;
18838;SDS011;9548;56.920;14.804;2022-08-21T11:16:53;4.03;;;1.02;;
18838;SDS011;9548;56.920;14.804;2022-08-21T11:19:28;6.05;;;1.33;;
18838;SDS011;9548;56.920;14.804;2022-08-21T11:22:02;5.47;;;1.10;;
18838;SDS011;9548;56.920;14.804;2022-08-21T11:24:39;3.88;;;1.20;;
18838;SDS011;9548;56.920;14.804;2022-08-21T11:27:13;11.93;;;1.20;;
18838;SDS011;9548;56.920;14.804;2022-08-21T11:29:48;2.85;;;0.88;;
18838;SDS011;9548;56.920;14.804;2022-08-21T11:35:28;3.15;;;1.00;;
18838;SDS011;9548;56.920;14.804;2022-08-21T11:38:05;2.33;;;1.00;;
18838;SDS011;9548;56.920;14.804;2022-08-21T11:40:52;2.38;;;0.90;;
18838;SDS011;9548;56.920;14.804;2022-08-21T11:43:30;2.65;;;0.82;;
18838;SDS011;9548;56.920;14.804;2022-08-21T11:46:11;4.22;;;1.05;;
18838;SDS011;9548;56.920;14.804;2022-08-21T11:48:49;1.48;;;0.90;;
18838;SDS011;9548;56.920;14.804;2022-08-21T11:51:27;4.80;;;1.00;;
18838;SDS011;9548;56.920;14.804;2022-08-21T11:54:03;1.58;;;1.00;;
18838;SDS011;9548;56.920;14.804;2022-08-21T11:56:39;3.25;;;0.90;;
18838;SDS011;9548;56.920;14.804;2022-08-21T11:59:12;2.58;;;1.10;;
18838;SDS011;9548;56.920;14.804;2022-08-21T12:01:46;2.45;;;1.20;;
18838;SDS011;9548;56.920;14.804;2022-08-21T12:04:17;2.65;;;1.10;;
18838;SDS011;9548;56.920;14.804;2022-08-21T12:06:54;3.67;;;1.10;;
18838;SDS011;9548;56.920;14.804;2022-08-21T12:09:31;3.17;;;1.30;;
18838;SDS011;9548;56.920;14.804;2022-08-21T12:12:03;2.22;;;1.00;;
18838;SDS011;9548;56.920;14.804;2022-08-21T12:14:36;2.13;;;1.10;;
18838;SDS011;9548;56.920;14.804;2022-08-21T12:17:05;4.80;;;1.23;;
18838;SDS011;9548;56.920;14.804;2022-08-21T12:19:34;5.00;;;1.33;;
18838;SDS011;9548;56.920;14.804;2022-08-21T12:22:07;2.80;;;1.00;;
18838;SDS011;9548;56.920;14.804;2022-08-21T12:24:38;4.32;;;1.00;;
18838;SDS011;9548;56.920;14.804;2022-08-21T12:27:17;3.60;;;0.95;;
18838;SDS011;9548;56.920;14.804;2022-08-21T12:29:51;2.15;;;0.80;;
18838;SDS011;9548;56.920;14.804;2022-08-21T12:32:23;2.63;;;0.90;;
18838;SDS011;9548;56.920;14.804;2022-08-21T12:34:53;2.67;;;0.88;;
18838;SDS011;9548;56.920;14.804;2022-08-21T12:37:29;3.15;;;1.02;;
18838;SDS011;9548;56.920;14.804;2022-08-21T12:40:09;3.97;;;1.10;;
18838;SDS011;9548;56.920;14.804;2022-08-21T12:42:41;2.67;;;1.10;;
18838;SDS011;9548;56.920;14.804;2022-08-21T12:45:13;7.13;;;1.30;;
18838;SDS011;9548;56.920;14.804;2022-08-21T12:47:47;1.52;;;0.90;;
18838;SDS011;9548;56.920;14.804;2022-08-21T12:50:19;2.70;;;1.13;;
18838;SDS011;9548;56.920;14.804;2022-08-21T12:52:51;4.20;;;1.15;;
18838;SDS011;9548;56.920;14.804;2022-08-21T12:55:29;2.55;;;0.90;;
18838;SDS011;9548;56.920;14.804;2022-08-21T12:57:59;1.88;;;0.90;;
18838;SDS011;9548;56.920;14.804;2022-08-21T13:00:28;1.92;;;0.90;;
18838;SDS011;9548;56.920;14.804;2022-08-21T13:02:56;2.65;;;1.00;;
18838;SDS011;9548;56.920;14.804;2022-08-21T13:05:27;1.63;;;1.10;;
18838;SDS011;9548;56.920;14.804;2022-08-21T13:07:56;1.75;;;0.90;;
18838;SDS011;9548;56.920;14.804;2022-08-21T13:10:24;5.00;;;1.17;;
18838;SDS011;9548;56.920;14.804;2022-08-21T13:12:56;0.85;;;0.70;;
18838;SDS011;9548;56.920;14.804;2022-08-21T13:15:27;2.97;;;1.10;;
18838;SDS011;9548;56.920;14.804;2022-08-21T13:17:56;2.67;;;0.95;;
18838;SDS011;9548;56.920;14.804;2022-08-21T13:20:28;2.38;;;0.90;;
18838;SDS011;9548;56.920;14.804;2022-08-21T13:22:57;2.05;;;0.70;;
18838;SDS011;9548;56.920;14.804;2022-08-21T13:25:25;4.20;;;1.20;;
18838;SDS011;9548;56.920;14.804;2022-08-21T13:27:59;2.95;;;1.17;;
18838;SDS011;9548;56.920;14.804;2022-08-21T13:30:27;5.53;;;0.98;;
18838;SDS011;9548;56.920;14.804;2022-08-21T13:32:56;5.38;;;0.95;;
18838;SDS011;9548;56.920;14.804;2022-08-21T13:35:28;4.85;;;1.13;;
18838;SDS011;9548;56.920;14.804;2022-08-21T13:38:01;1.83;;;0.80;;
18838;SDS011;9548;56.920;14.804;2022-08-21T13:40:29;4.22;;;0.82;;
18838;SDS011;9548;56.920;14.804;2022-08-21T13:43:00;5.25;;;1.25;;
18838;SDS011;9548;56.920;14.804;2022-08-21T13:45:29;4.82;;;0.95;;
18838;SDS011;9548;56.920;14.804;2022-08-21T13:47:59;4.13;;;0.90;;
18838;SDS011;9548;56.920;14.804;2022-08-21T13:50:27;3.35;;;0.93;;
18838;SDS011;9548;56.920;14.804;2022-08-21T13:52:56;1.77;;;0.90;;
18838;SDS011;9548;56.920;14.804;2022-08-21T13:55:33;4.32;;;1.13;;
18838;SDS011;9548;56.920;14.804;2022-08-21T13:58:04;3.10;;;1.10;;
18838;SDS011;9548;56.920;14.804;2022-08-21T14:00:32;3.42;;;1.10;;
18838;SDS011;9548;56.920;14.804;2022-08-21T14:03:03;2.30;;;0.93;;
18838;SDS011;9548;56.920;14.804;2022-08-21T14:05:36;3.25;;;1.00;;
18838;SDS011;9548;56.920;14.804;2022-08-21T14:08:10;1.60;;;0.93;;
18838;SDS011;9548;56.920;14.804;2022-08-21T14:10:41;3.80;;;1.00;;
18838;SDS011;9548;56.920;14.804;2022-08-21T14:13:20;2.78;;;1.20;;
18838;SDS011;9548;56.920;14.804;2022-08-21T14:15:59;3.60;;;1.10;;
18838;SDS011;9548;56.920;14.804;2022-08-21T14:18:28;2.17;;;1.08;;
18838;SDS011;9548;56.920;14.804;2022-08-21T14:21:03;3.78;;;1.00;;
18838;SDS011;9548;56.920;14.804;2022-08-21T14:23:31;1.67;;;0.90;;
18838;SDS011;9548;56.920;14.804;2022-08-21T14:25:58;3.55;;;1.08;;
18838;SDS011;9548;56.920;14.804;2022-08-21T14:28:29;3.00;;;1.20;;
18838;SDS011;9548;56.920;14.804;2022-08-21T14:30:58;3.90;;;1.02;;
18838;SDS011;9548;56.920;14.804;2022-08-21T14:33:38;2.60;;;0.90;;
18838;SDS011;9548;56.920;14.804;2022-08-21T14:36:05;2.75;;;1.10;;
18838;SDS011;9548;56.920;14.804;2022-08-21T14:38:34;4.35;;;1.00;;
18838;SDS011;9548;56.920;14.804;2022-08-21T14:41:03;2.78;;;1.00;;
18838;SDS011;9548;56.920;14.804;2022-08-21T14:43:43;2.72;;;1.02;;
18838;SDS011;9548;56.920;14.804;2022-08-21T14:46:12;3.40;;;1.00;;
18838;SDS011;9548;56.920;14.804;2022-08-21T14:48:44;1.73;;;0.77;;
18838;SDS011;9548;56.920;14.804;2022-08-21T14:51:11;2.63;;;0.90;;
18838;SDS011;9548;56.920;14.804;2022-08-21T14:53:38;2.08;;;0.88;;
18838;SDS011;9548;56.920;14.804;2022-08-21T14:56:06;1.55;;;0.75;;
18838;SDS011;9548;56.920;14.804;2022-08-21T14:58:33;2.15;;;0.80;;
18838;SDS011;9548;56.920;14.804;2022-08-21T15:01:04;1.73;;;0.80;;
18838;SDS011;9548;56.920;14.804;2022-08-21T15:03:33;1.25;;;0.80;;
18838;SDS011;9548;56.920;14.804;2022-08-21T15:06:00;3.70;;;1.00;;
18838;SDS011;9548;56.920;14.804;2022-08-21T15:08:28;2.45;;;0.90;;
18838;SDS011;9548;56.920;14.804;2022-08-21T15:10:55;4.00;;;1.13;;